sensor_id;sensor_type;location;lat;lon;timestamp;P1;durP1;ratioP1;P2;durP2;ratioP2
54881;SDS011;40775;51.448;4.742;2022-09-09T00:04:17;0.63;;;0.30;;
54881;SDS011;40775;51.448;4.742;2022-09-09T00:07:18;0.80;;;0.20;;
54881;SDS011;40775;51.448;4.742;2022-09-09T00:16:17;0.77;;;0.30;;
54881;SDS011;40775;51.448;4.742;2022-09-09T00:19:05;0.67;;;0.27;;
54881;SDS011;40775;51.448;4.742;2022-09-09T00:22:10;0.40;;;0.17;;
54881;SDS011;40775;51.448;4.742;2022-09-09T00:24:48;0.57;;;0.20;;
54881;SDS011;40775;51.448;4.742;2022-09-09T00:27:49;0.40;;;0.20;;
54881;SDS011;40775;51.448;4.742;2022-09-09T00:32:54;0.27;;;0.20;;
54881;SDS011;40775;51.448;4.742;2022-09-09T00:35:42;0.67;;;0.23;;
54881;SDS011;40775;51.448;4.742;2022-09-09T00:38:15;0.80;;;0.20;;
54881;SDS011;40775;51.448;4.742;2022-09-09T00:41:02;1.00;;;0.20;;
54881;SDS011;40775;51.448;4.742;2022-09-09T00:43:40;1.10;;;0.40;;
54881;SDS011;40775;51.448;4.742;2022-09-09T00:57:33;1.60;;;0.40;;
54881;SDS011;40775;51.448;4.742;2022-09-09T01:00:17;1.98;;;0.38;;
54881;SDS011;40775;51.448;4.742;2022-09-09T01:09:02;1.48;;;0.40;;
54881;SDS011;40775;51.448;4.742;2022-09-09T01:12:17;0.70;;;0.20;;
54881;SDS011;40775;51.448;4.742;2022-09-09T01:15:10;1.25;;;0.40;;
54881;SDS011;40775;51.448;4.742;2022-09-09T01:18:21;1.20;;;0.30;;
54881;SDS011;40775;51.448;4.742;2022-09-09T01:21:09;0.45;;;0.20;;
54881;SDS011;40775;51.448;4.742;2022-09-09T01:26:45;0.90;;;0.40;;
54881;SDS011;40775;51.448;4.742;2022-09-09T01:29:15;0.93;;;0.30;;
54881;SDS011;40775;51.448;4.742;2022-09-09T01:31:56;0.80;;;0.30;;
54881;SDS011;40775;51.448;4.742;2022-09-09T01:34:27;0.82;;;0.30;;
54881;SDS011;40775;51.448;4.742;2022-09-09T01:37:07;0.93;;;0.30;;
54881;SDS011;40775;51.448;4.742;2022-09-09T01:39:37;1.52;;;0.28;;
54881;SDS011;40775;51.448;4.742;2022-09-09T01:42:12;0.98;;;0.30;;
54881;SDS011;40775;51.448;4.742;2022-09-09T01:44:42;0.70;;;0.30;;
54881;SDS011;40775;51.448;4.742;2022-09-09T01:47:11;1.08;;;0.30;;
54881;SDS011;40775;51.448;4.742;2022-09-09T01:49:38;1.10;;;0.30;;
54881;SDS011;40775;51.448;4.742;2022-09-09T01:52:07;1.50;;;0.30;;
54881;SDS011;40775;51.448;4.742;2022-09-09T01:54:38;0.50;;;0.30;;
54881;SDS011;40775;51.448;4.742;2022-09-09T01:57:23;0.30;;;0.20;;
54881;SDS011;40775;51.448;4.742;2022-09-09T02:08:26;2.17;;;0.30;;
54881;SDS011;40775;51.448;4.742;2022-09-09T02:11:13;1.10;;;0.28;;
54881;SDS011;40775;51.448;4.742;2022-09-09T02:13:47;2.00;;;0.30;;
54881;SDS011;40775;51.448;4.742;2022-09-09T02:16:26;1.07;;;0.40;;
54881;SDS011;40775;51.448;4.742;2022-09-09T02:19:41;0.80;;;0.28;;
54881;SDS011;40775;51.448;4.742;2022-09-09T02:22:29;1.13;;;0.35;;
54881;SDS011;40775;51.448;4.742;2022-09-09T02:25:03;4.90;;;0.50;;
54881;SDS011;40775;51.448;4.742;2022-09-09T02:27:36;0.75;;;0.40;;
54881;SDS011;40775;51.448;4.742;2022-09-09T02:30:04;0.63;;;0.30;;
54881;SDS011;40775;51.448;4.742;2022-09-09T02:32:32;1.85;;;0.38;;
54881;SDS011;40775;51.448;4.742;2022-09-09T02:35:03;0.70;;;0.30;;
54881;SDS011;40775;51.448;4.742;2022-09-09T02:37:40;0.70;;;0.30;;
54881;SDS011;40775;51.448;4.742;2022-09-09T02:40:12;1.13;;;0.40;;
54881;SDS011;40775;51.448;4.742;2022-09-09T02:42:45;0.68;;;0.30;;
54881;SDS011;40775;51.448;4.742;2022-09-09T02:45:22;0.40;;;0.20;;
54881;SDS011;40775;51.448;4.742;2022-09-09T02:54:13;2.47;;;0.30;;
54881;SDS011;40775;51.448;4.742;2022-09-09T02:56:41;2.08;;;0.40;;
54881;SDS011;40775;51.448;4.742;2022-09-09T02:59:17;1.00;;;0.30;;
54881;SDS011;40775;51.448;4.742;2022-09-09T03:01:47;0.85;;;0.30;;
54881;SDS011;40775;51.448;4.742;2022-09-09T03:04:14;1.10;;;0.30;;
54881;SDS011;40775;51.448;4.742;2022-09-09T03:06:41;0.55;;;0.22;;
54881;SDS011;40775;51.448;4.742;2022-09-09T03:09:09;0.55;;;0.25;;
54881;SDS011;40775;51.448;4.742;2022-09-09T03:11:37;0.90;;;0.25;;
54881;SDS011;40775;51.448;4.742;2022-09-09T03:14:04;1.45;;;0.30;;
54881;SDS011;40775;51.448;4.742;2022-09-09T03:16:31;0.80;;;0.30;;
54881;SDS011;40775;51.448;4.742;2022-09-09T03:19:01;0.73;;;0.30;;
54881;SDS011;40775;51.448;4.742;2022-09-09T03:21:29;1.73;;;0.38;;
54881;SDS011;40775;51.448;4.742;2022-09-09T03:23:57;0.68;;;0.30;;
54881;SDS011;40775;51.448;4.742;2022-09-09T03:26:26;1.23;;;0.20;;
54881;SDS011;40775;51.448;4.742;2022-09-09T03:28:53;0.40;;;0.15;;
54881;SDS011;40775;51.448;4.742;2022-09-09T03:31:20;0.80;;;0.30;;
54881;SDS011;40775;51.448;4.742;2022-09-09T03:33:48;1.90;;;0.50;;
54881;SDS011;40775;51.448;4.742;2022-09-09T03:36:15;1.67;;;0.28;;
54881;SDS011;40775;51.448;4.742;2022-09-09T03:38:42;1.90;;;0.43;;
54881;SDS011;40775;51.448;4.742;2022-09-09T03:41:10;1.02;;;0.40;;
54881;SDS011;40775;51.448;4.742;2022-09-09T03:43:38;1.30;;;0.40;;
54881;SDS011;40775;51.448;4.742;2022-09-09T03:46:05;0.65;;;0.30;;
54881;SDS011;40775;51.448;4.742;2022-09-09T03:48:36;1.05;;;0.35;;
54881;SDS011;40775;51.448;4.742;2022-09-09T03:51:04;0.90;;;0.30;;
54881;SDS011;40775;51.448;4.742;2022-09-09T03:53:31;1.13;;;0.40;;
54881;SDS011;40775;51.448;4.742;2022-09-09T03:55:59;1.03;;;0.27;;
54881;SDS011;40775;51.448;4.742;2022-09-09T03:58:27;0.88;;;0.30;;
54881;SDS011;40775;51.448;4.742;2022-09-09T04:03:27;1.25;;;0.40;;
54881;SDS011;40775;51.448;4.742;2022-09-09T04:05:55;0.75;;;0.30;;
54881;SDS011;40775;51.448;4.742;2022-09-09T04:08:26;1.40;;;0.38;;
54881;SDS011;40775;51.448;4.742;2022-09-09T04:10:53;2.35;;;0.43;;
54881;SDS011;40775;51.448;4.742;2022-09-09T04:13:26;2.22;;;0.32;;
54881;SDS011;40775;51.448;4.742;2022-09-09T04:15:54;4.45;;;0.50;;
54881;SDS011;40775;51.448;4.742;2022-09-09T04:18:24;2.40;;;0.40;;
54881;SDS011;40775;51.448;4.742;2022-09-09T04:20:54;1.30;;;0.40;;
54881;SDS011;40775;51.448;4.742;2022-09-09T04:23:24;1.00;;;0.50;;
54881;SDS011;40775;51.448;4.742;2022-09-09T04:25:55;1.77;;;0.50;;
54881;SDS011;40775;51.448;4.742;2022-09-09T04:28:25;2.67;;;0.55;;
54881;SDS011;40775;51.448;4.742;2022-09-09T04:30:55;2.65;;;0.40;;
54881;SDS011;40775;51.448;4.742;2022-09-09T04:33:23;1.38;;;0.40;;
54881;SDS011;40775;51.448;4.742;2022-09-09T04:35:53;0.85;;;0.40;;
54881;SDS011;40775;51.448;4.742;2022-09-09T04:38:21;2.78;;;0.40;;
54881;SDS011;40775;51.448;4.742;2022-09-09T04:40:49;1.50;;;0.57;;
54881;SDS011;40775;51.448;4.742;2022-09-09T04:43:20;2.20;;;0.60;;
54881;SDS011;40775;51.448;4.742;2022-09-09T04:45:49;1.00;;;0.30;;
54881;SDS011;40775;51.448;4.742;2022-09-09T04:48:17;2.40;;;0.65;;
54881;SDS011;40775;51.448;4.742;2022-09-09T04:51:01;1.50;;;0.50;;
54881;SDS011;40775;51.448;4.742;2022-09-09T04:53:35;1.90;;;0.63;;
54881;SDS011;40775;51.448;4.742;2022-09-09T04:58:38;1.63;;;0.70;;
54881;SDS011;40775;51.448;4.742;2022-09-09T05:01:10;1.80;;;0.60;;
54881;SDS011;40775;51.448;4.742;2022-09-09T05:03:45;2.03;;;0.50;;
54881;SDS011;40775;51.448;4.742;2022-09-09T05:06:13;1.65;;;0.68;;
54881;SDS011;40775;51.448;4.742;2022-09-09T05:08:43;4.10;;;0.52;;
54881;SDS011;40775;51.448;4.742;2022-09-09T05:11:17;3.25;;;0.63;;
54881;SDS011;40775;51.448;4.742;2022-09-09T05:13:47;1.30;;;0.50;;
54881;SDS011;40775;51.448;4.742;2022-09-09T05:16:14;1.17;;;0.50;;
54881;SDS011;40775;51.448;4.742;2022-09-09T05:18:43;2.90;;;0.60;;
54881;SDS011;40775;51.448;4.742;2022-09-09T05:21:11;1.25;;;0.50;;
54881;SDS011;40775;51.448;4.742;2022-09-09T05:23:40;3.25;;;0.57;;
54881;SDS011;40775;51.448;4.742;2022-09-09T05:26:08;2.50;;;0.80;;
54881;SDS011;40775;51.448;4.742;2022-09-09T05:28:43;1.50;;;0.52;;
54881;SDS011;40775;51.448;4.742;2022-09-09T05:31:12;1.73;;;0.52;;
54881;SDS011;40775;51.448;4.742;2022-09-09T05:33:43;1.15;;;0.40;;
54881;SDS011;40775;51.448;4.742;2022-09-09T05:36:16;1.83;;;0.50;;
54881;SDS011;40775;51.448;4.742;2022-09-09T05:38:46;1.75;;;0.40;;
54881;SDS011;40775;51.448;4.742;2022-09-09T05:41:14;2.05;;;0.50;;
54881;SDS011;40775;51.448;4.742;2022-09-09T05:43:42;1.65;;;0.55;;
54881;SDS011;40775;51.448;4.742;2022-09-09T05:46:11;1.63;;;0.40;;
54881;SDS011;40775;51.448;4.742;2022-09-09T05:48:46;1.17;;;0.40;;
54881;SDS011;40775;51.448;4.742;2022-09-09T05:51:18;1.63;;;0.50;;
54881;SDS011;40775;51.448;4.742;2022-09-09T05:53:52;1.48;;;0.50;;
54881;SDS011;40775;51.448;4.742;2022-09-09T05:56:22;1.70;;;0.60;;
54881;SDS011;40775;51.448;4.742;2022-09-09T05:58:52;1.90;;;0.50;;
54881;SDS011;40775;51.448;4.742;2022-09-09T06:03:53;2.10;;;0.82;;
54881;SDS011;40775;51.448;4.742;2022-09-09T06:06:21;3.30;;;0.85;;
54881;SDS011;40775;51.448;4.742;2022-09-09T06:08:53;6.25;;;1.10;;
54881;SDS011;40775;51.448;4.742;2022-09-09T06:11:24;4.95;;;0.80;;
54881;SDS011;40775;51.448;4.742;2022-09-09T06:13:57;4.57;;;1.07;;
54881;SDS011;40775;51.448;4.742;2022-09-09T06:16:26;3.88;;;0.88;;
54881;SDS011;40775;51.448;4.742;2022-09-09T06:18:55;3.17;;;0.80;;
54881;SDS011;40775;51.448;4.742;2022-09-09T06:21:25;1.73;;;0.70;;
54881;SDS011;40775;51.448;4.742;2022-09-09T06:23:59;3.60;;;0.77;;
54881;SDS011;40775;51.448;4.742;2022-09-09T06:26:31;5.45;;;0.70;;
54881;SDS011;40775;51.448;4.742;2022-09-09T06:29:03;3.53;;;0.77;;
54881;SDS011;40775;51.448;4.742;2022-09-09T06:31:32;1.90;;;0.68;;
54881;SDS011;40775;51.448;4.742;2022-09-09T06:34:06;3.00;;;0.70;;
54881;SDS011;40775;51.448;4.742;2022-09-09T06:36:35;3.33;;;0.60;;
54881;SDS011;40775;51.448;4.742;2022-09-09T06:39:05;4.30;;;0.90;;
54881;SDS011;40775;51.448;4.742;2022-09-09T06:41:39;2.60;;;0.63;;
54881;SDS011;40775;51.448;4.742;2022-09-09T06:44:07;3.17;;;0.50;;
54881;SDS011;40775;51.448;4.742;2022-09-09T06:46:34;2.90;;;0.70;;
54881;SDS011;40775;51.448;4.742;2022-09-09T06:49:01;1.50;;;0.50;;
54881;SDS011;40775;51.448;4.742;2022-09-09T06:51:30;3.53;;;0.80;;
54881;SDS011;40775;51.448;4.742;2022-09-09T06:54:00;3.00;;;0.50;;
54881;SDS011;40775;51.448;4.742;2022-09-09T06:56:33;4.93;;;0.70;;
54881;SDS011;40775;51.448;4.742;2022-09-09T06:59:03;2.60;;;0.60;;
54881;SDS011;40775;51.448;4.742;2022-09-09T07:01:35;2.05;;;0.68;;
54881;SDS011;40775;51.448;4.742;2022-09-09T07:04:21;2.63;;;0.70;;
54881;SDS011;40775;51.448;4.742;2022-09-09T07:06:48;2.60;;;0.60;;
54881;SDS011;40775;51.448;4.742;2022-09-09T07:09:15;3.35;;;0.80;;
54881;SDS011;40775;51.448;4.742;2022-09-09T07:11:44;2.55;;;0.60;;
54881;SDS011;40775;51.448;4.742;2022-09-09T07:14:13;3.33;;;0.90;;
54881;SDS011;40775;51.448;4.742;2022-09-09T07:16:41;2.28;;;0.50;;
54881;SDS011;40775;51.448;4.742;2022-09-09T07:19:10;3.17;;;0.82;;
54881;SDS011;40775;51.448;4.742;2022-09-09T07:21:38;1.52;;;0.63;;
54881;SDS011;40775;51.448;4.742;2022-09-09T07:24:06;1.77;;;0.57;;
54881;SDS011;40775;51.448;4.742;2022-09-09T07:26:36;5.78;;;0.68;;
54881;SDS011;40775;51.448;4.742;2022-09-09T07:29:05;3.53;;;0.70;;
54881;SDS011;40775;51.448;4.742;2022-09-09T07:31:34;2.88;;;0.70;;
54881;SDS011;40775;51.448;4.742;2022-09-09T07:34:06;4.55;;;0.80;;
54881;SDS011;40775;51.448;4.742;2022-09-09T07:36:34;3.80;;;0.60;;
54881;SDS011;40775;51.448;4.742;2022-09-09T07:39:07;2.78;;;0.98;;
54881;SDS011;40775;51.448;4.742;2022-09-09T07:41:38;2.13;;;0.80;;
54881;SDS011;40775;51.448;4.742;2022-09-09T07:44:08;4.20;;;0.80;;
54881;SDS011;40775;51.448;4.742;2022-09-09T07:46:38;1.85;;;0.60;;
54881;SDS011;40775;51.448;4.742;2022-09-09T07:49:06;2.60;;;0.73;;
54881;SDS011;40775;51.448;4.742;2022-09-09T07:51:35;4.10;;;0.80;;
54881;SDS011;40775;51.448;4.742;2022-09-09T07:54:06;4.30;;;0.80;;
54881;SDS011;40775;51.448;4.742;2022-09-09T07:56:39;4.37;;;1.17;;
54881;SDS011;40775;51.448;4.742;2022-09-09T07:59:07;2.00;;;0.55;;
54881;SDS011;40775;51.448;4.742;2022-09-09T08:01:42;4.22;;;1.00;;
54881;SDS011;40775;51.448;4.742;2022-09-09T08:04:13;4.32;;;0.95;;
54881;SDS011;40775;51.448;4.742;2022-09-09T08:06:48;5.30;;;0.97;;
54881;SDS011;40775;51.448;4.742;2022-09-09T08:09:19;3.90;;;0.82;;
54881;SDS011;40775;51.448;4.742;2022-09-09T08:11:47;3.70;;;0.90;;
54881;SDS011;40775;51.448;4.742;2022-09-09T08:14:14;3.75;;;1.02;;
54881;SDS011;40775;51.448;4.742;2022-09-09T08:16:42;4.40;;;0.90;;
54881;SDS011;40775;51.448;4.742;2022-09-09T08:19:12;3.25;;;0.75;;
54881;SDS011;40775;51.448;4.742;2022-09-09T08:21:42;1.67;;;0.60;;
54881;SDS011;40775;51.448;4.742;2022-09-09T08:24:11;2.75;;;0.73;;
54881;SDS011;40775;51.448;4.742;2022-09-09T08:26:42;4.57;;;0.73;;
54881;SDS011;40775;51.448;4.742;2022-09-09T08:29:12;3.08;;;0.73;;
54881;SDS011;40775;51.448;4.742;2022-09-09T08:31:42;2.88;;;0.80;;
54881;SDS011;40775;51.448;4.742;2022-09-09T08:34:24;3.40;;;0.80;;
54881;SDS011;40775;51.448;4.742;2022-09-09T08:36:53;4.03;;;0.95;;
54881;SDS011;40775;51.448;4.742;2022-09-09T08:39:21;6.20;;;1.13;;
54881;SDS011;40775;51.448;4.742;2022-09-09T08:45:23;2.40;;;0.55;;
54881;SDS011;40775;51.448;4.742;2022-09-09T08:48:15;2.10;;;0.70;;
54881;SDS011;40775;51.448;4.742;2022-09-09T08:51:08;3.25;;;0.90;;
54881;SDS011;40775;51.448;4.742;2022-09-09T08:53:38;1.33;;;0.60;;
54881;SDS011;40775;51.448;4.742;2022-09-09T08:56:15;1.52;;;0.52;;
54881;SDS011;40775;51.448;4.742;2022-09-09T08:58:48;2.38;;;0.73;;
54881;SDS011;40775;51.448;4.742;2022-09-09T09:04:30;3.08;;;0.70;;
54881;SDS011;40775;51.448;4.742;2022-09-09T09:10:05;1.80;;;0.52;;
54881;SDS011;40775;51.448;4.742;2022-09-09T09:13:12;3.05;;;0.80;;
54881;SDS011;40775;51.448;4.742;2022-09-09T09:15:44;2.70;;;0.60;;
54881;SDS011;40775;51.448;4.742;2022-09-09T09:18:18;4.80;;;0.90;;
54881;SDS011;40775;51.448;4.742;2022-09-09T09:23:44;2.42;;;0.68;;
54881;SDS011;40775;51.448;4.742;2022-09-09T09:26:22;1.42;;;0.57;;
54881;SDS011;40775;51.448;4.742;2022-09-09T09:28:55;2.38;;;0.50;;
54881;SDS011;40775;51.448;4.742;2022-09-09T09:31:25;2.65;;;0.85;;
54881;SDS011;40775;51.448;4.742;2022-09-09T09:33:53;2.15;;;0.70;;
54881;SDS011;40775;51.448;4.742;2022-09-09T09:36:33;3.65;;;1.02;;
54881;SDS011;40775;51.448;4.742;2022-09-09T09:39:06;2.83;;;0.68;;
54881;SDS011;40775;51.448;4.742;2022-09-09T09:41:54;4.78;;;0.80;;
54881;SDS011;40775;51.448;4.742;2022-09-09T09:44:26;2.72;;;0.75;;
54881;SDS011;40775;51.448;4.742;2022-09-09T09:47:08;5.13;;;1.20;;
54881;SDS011;40775;51.448;4.742;2022-09-09T09:49:39;4.85;;;0.80;;
54881;SDS011;40775;51.448;4.742;2022-09-09T09:52:22;3.97;;;0.90;;
54881;SDS011;40775;51.448;4.742;2022-09-09T09:54:57;2.92;;;0.90;;
54881;SDS011;40775;51.448;4.742;2022-09-09T09:57:33;3.00;;;0.90;;
54881;SDS011;40775;51.448;4.742;2022-09-09T10:00:21;5.45;;;1.17;;
54881;SDS011;40775;51.448;4.742;2022-09-09T10:02:49;3.08;;;1.10;;
54881;SDS011;40775;51.448;4.742;2022-09-09T10:08:02;4.00;;;1.05;;
54881;SDS011;40775;51.448;4.742;2022-09-09T10:19:15;1.60;;;0.68;;
54881;SDS011;40775;51.448;4.742;2022-09-09T10:27:43;1.90;;;0.60;;
54881;SDS011;40775;51.448;4.742;2022-09-09T10:36:03;2.97;;;0.65;;
54881;SDS011;40775;51.448;4.742;2022-09-09T10:50:36;1.80;;;0.70;;
54881;SDS011;40775;51.448;4.742;2022-09-09T10:53:45;1.50;;;0.50;;
54881;SDS011;40775;51.448;4.742;2022-09-09T10:56:40;1.40;;;0.70;;
54881;SDS011;40775;51.448;4.742;2022-09-09T10:59:14;1.73;;;0.43;;
54881;SDS011;40775;51.448;4.742;2022-09-09T11:01:59;3.92;;;0.68;;
54881;SDS011;40775;51.448;4.742;2022-09-09T11:04:49;2.45;;;0.65;;
54881;SDS011;40775;51.448;4.742;2022-09-09T11:10:25;2.95;;;0.75;;
54881;SDS011;40775;51.448;4.742;2022-09-09T11:13:09;3.55;;;0.90;;
54881;SDS011;40775;51.448;4.742;2022-09-09T11:15:46;3.33;;;1.20;;
54881;SDS011;40775;51.448;4.742;2022-09-09T11:18:20;3.83;;;1.00;;
54881;SDS011;40775;51.448;4.742;2022-09-09T11:20:53;3.05;;;0.65;;
54881;SDS011;40775;51.448;4.742;2022-09-09T11:23:49;3.80;;;0.90;;
54881;SDS011;40775;51.448;4.742;2022-09-09T11:26:32;11.40;;;0.82;;
54881;SDS011;40775;51.448;4.742;2022-09-09T11:29:37;4.57;;;1.10;;
54881;SDS011;40775;51.448;4.742;2022-09-09T11:38:36;4.45;;;1.05;;
54881;SDS011;40775;51.448;4.742;2022-09-09T11:41:17;2.95;;;0.77;;
54881;SDS011;40775;51.448;4.742;2022-09-09T11:46:22;6.33;;;1.00;;
54881;SDS011;40775;51.448;4.742;2022-09-09T11:49:03;2.30;;;0.60;;
54881;SDS011;40775;51.448;4.742;2022-09-09T11:51:33;3.78;;;1.00;;
54881;SDS011;40775;51.448;4.742;2022-09-09T11:56:48;1.73;;;0.70;;
54881;SDS011;40775;51.448;4.742;2022-09-09T11:59:19;3.72;;;1.05;;
54881;SDS011;40775;51.448;4.742;2022-09-09T12:02:03;4.05;;;0.80;;
54881;SDS011;40775;51.448;4.742;2022-09-09T12:04:49;4.50;;;0.65;;
54881;SDS011;40775;51.448;4.742;2022-09-09T12:07:33;3.10;;;0.80;;
54881;SDS011;40775;51.448;4.742;2022-09-09T12:13:18;2.55;;;0.70;;
54881;SDS011;40775;51.448;4.742;2022-09-09T12:15:50;2.83;;;0.80;;
54881;SDS011;40775;51.448;4.742;2022-09-09T12:18:36;2.42;;;0.60;;
54881;SDS011;40775;51.448;4.742;2022-09-09T12:24:27;3.08;;;0.75;;
54881;SDS011;40775;51.448;4.742;2022-09-09T12:30:04;4.68;;;0.80;;
54881;SDS011;40775;51.448;4.742;2022-09-09T12:32:41;1.90;;;0.40;;
54881;SDS011;40775;51.448;4.742;2022-09-09T12:35:24;2.80;;;0.60;;
54881;SDS011;40775;51.448;4.742;2022-09-09T12:38:01;1.48;;;0.40;;
54881;SDS011;40775;51.448;4.742;2022-09-09T12:40:31;2.00;;;0.65;;
54881;SDS011;40775;51.448;4.742;2022-09-09T12:43:02;2.55;;;0.73;;
54881;SDS011;40775;51.448;4.742;2022-09-09T12:45:48;1.50;;;0.40;;
54881;SDS011;40775;51.448;4.742;2022-09-09T12:48:34;2.83;;;0.57;;
54881;SDS011;40775;51.448;4.742;2022-09-09T12:51:21;1.90;;;0.40;;
54881;SDS011;40775;51.448;4.742;2022-09-09T12:53:55;3.47;;;0.50;;
54881;SDS011;40775;51.448;4.742;2022-09-09T12:56:27;2.42;;;0.40;;
54881;SDS011;40775;51.448;4.742;2022-09-09T12:58:58;1.33;;;0.40;;
54881;SDS011;40775;51.448;4.742;2022-09-09T13:01:28;1.77;;;0.50;;
54881;SDS011;40775;51.448;4.742;2022-09-09T13:03:59;2.47;;;0.50;;
54881;SDS011;40775;51.448;4.742;2022-09-09T13:06:28;0.80;;;0.30;;
54881;SDS011;40775;51.448;4.742;2022-09-09T13:08:58;1.10;;;0.50;;
54881;SDS011;40775;51.448;4.742;2022-09-09T13:11:31;1.13;;;0.40;;
54881;SDS011;40775;51.448;4.742;2022-09-09T13:14:15;1.73;;;0.60;;
54881;SDS011;40775;51.448;4.742;2022-09-09T13:17:01;1.00;;;0.38;;
54881;SDS011;40775;51.448;4.742;2022-09-09T13:19:38;2.50;;;0.45;;
54881;SDS011;40775;51.448;4.742;2022-09-09T13:22:19;2.47;;;0.88;;
54881;SDS011;40775;51.448;4.742;2022-09-09T13:25:04;2.60;;;0.55;;
54881;SDS011;40775;51.448;4.742;2022-09-09T13:27:53;3.13;;;0.65;;
54881;SDS011;40775;51.448;4.742;2022-09-09T13:35:35;3.45;;;0.60;;
54881;SDS011;40775;51.448;4.742;2022-09-09T13:38:58;2.15;;;0.50;;
54881;SDS011;40775;51.448;4.742;2022-09-09T13:41:36;2.20;;;0.60;;
54881;SDS011;40775;51.448;4.742;2022-09-09T13:44:26;1.65;;;0.40;;
54881;SDS011;40775;51.448;4.742;2022-09-09T13:47:01;1.73;;;0.50;;
54881;SDS011;40775;51.448;4.742;2022-09-09T13:49:43;1.07;;;0.40;;
54881;SDS011;40775;51.448;4.742;2022-09-09T13:52:13;0.93;;;0.52;;
54881;SDS011;40775;51.448;4.742;2022-09-09T13:54:48;4.22;;;0.70;;
54881;SDS011;40775;51.448;4.742;2022-09-09T13:57:18;4.70;;;0.80;;
54881;SDS011;40775;51.448;4.742;2022-09-09T13:59:52;5.60;;;0.90;;
54881;SDS011;40775;51.448;4.742;2022-09-09T14:02:36;5.07;;;0.80;;
54881;SDS011;40775;51.448;4.742;2022-09-09T14:05:05;3.77;;;0.80;;
54881;SDS011;40775;51.448;4.742;2022-09-09T14:07:32;4.78;;;1.20;;
54881;SDS011;40775;51.448;4.742;2022-09-09T14:09:59;1.52;;;0.70;;
54881;SDS011;40775;51.448;4.742;2022-09-09T14:12:26;2.08;;;0.80;;
54881;SDS011;40775;51.448;4.742;2022-09-09T14:14:53;4.15;;;1.10;;
54881;SDS011;40775;51.448;4.742;2022-09-09T14:17:20;2.10;;;0.70;;
54881;SDS011;40775;51.448;4.742;2022-09-09T14:19:48;1.50;;;0.68;;
54881;SDS011;40775;51.448;4.742;2022-09-09T14:22:15;2.10;;;0.70;;
54881;SDS011;40775;51.448;4.742;2022-09-09T14:24:43;3.25;;;0.80;;
54881;SDS011;40775;51.448;4.742;2022-09-09T14:27:10;2.63;;;0.93;;
54881;SDS011;40775;51.448;4.742;2022-09-09T14:29:37;5.63;;;1.10;;
54881;SDS011;40775;51.448;4.742;2022-09-09T14:32:04;3.53;;;0.90;;
54881;SDS011;40775;51.448;4.742;2022-09-09T14:34:37;3.55;;;1.00;;
54881;SDS011;40775;51.448;4.742;2022-09-09T14:37:04;3.63;;;1.10;;
54881;SDS011;40775;51.448;4.742;2022-09-09T14:39:32;3.30;;;1.00;;
54881;SDS011;40775;51.448;4.742;2022-09-09T14:41:59;3.73;;;1.10;;
54881;SDS011;40775;51.448;4.742;2022-09-09T14:44:27;2.88;;;1.17;;
54881;SDS011;40775;51.448;4.742;2022-09-09T14:46:54;2.70;;;0.93;;
54881;SDS011;40775;51.448;4.742;2022-09-09T14:49:21;3.92;;;0.90;;
54881;SDS011;40775;51.448;4.742;2022-09-09T14:51:48;2.90;;;0.70;;
54881;SDS011;40775;51.448;4.742;2022-09-09T14:54:15;2.37;;;0.90;;
54881;SDS011;40775;51.448;4.742;2022-09-09T14:56:42;3.55;;;1.05;;
54881;SDS011;40775;51.448;4.742;2022-09-09T14:59:09;2.28;;;0.98;;
54881;SDS011;40775;51.448;4.742;2022-09-09T15:01:36;4.30;;;1.00;;
54881;SDS011;40775;51.448;4.742;2022-09-09T15:04:04;4.53;;;1.00;;
54881;SDS011;40775;51.448;4.742;2022-09-09T15:06:33;3.33;;;0.80;;
54881;SDS011;40775;51.448;4.742;2022-09-09T15:09:03;4.95;;;0.98;;
54881;SDS011;40775;51.448;4.742;2022-09-09T15:11:33;2.75;;;0.80;;
54881;SDS011;40775;51.448;4.742;2022-09-09T15:14:07;2.17;;;1.00;;
54881;SDS011;40775;51.448;4.742;2022-09-09T15:16:35;2.00;;;0.70;;
54881;SDS011;40775;51.448;4.742;2022-09-09T15:19:03;1.38;;;0.50;;
54881;SDS011;40775;51.448;4.742;2022-09-09T15:21:31;3.08;;;0.90;;
54881;SDS011;40775;51.448;4.742;2022-09-09T15:24:01;1.83;;;0.63;;
54881;SDS011;40775;51.448;4.742;2022-09-09T15:26:28;1.52;;;0.50;;
54881;SDS011;40775;51.448;4.742;2022-09-09T15:28:56;2.77;;;0.70;;
54881;SDS011;40775;51.448;4.742;2022-09-09T15:31:26;1.98;;;0.68;;
54881;SDS011;40775;51.448;4.742;2022-09-09T15:34:00;1.38;;;0.68;;
54881;SDS011;40775;51.448;4.742;2022-09-09T15:39:06;2.05;;;0.75;;
54881;SDS011;40775;51.448;4.742;2022-09-09T15:41:38;2.17;;;0.70;;
54881;SDS011;40775;51.448;4.742;2022-09-09T15:44:06;2.92;;;0.60;;
54881;SDS011;40775;51.448;4.742;2022-09-09T15:46:35;1.48;;;0.50;;
54881;SDS011;40775;51.448;4.742;2022-09-09T15:51:36;2.63;;;0.90;;
54881;SDS011;40775;51.448;4.742;2022-09-09T15:54:14;2.03;;;0.70;;
54881;SDS011;40775;51.448;4.742;2022-09-09T15:56:47;3.22;;;0.82;;
54881;SDS011;40775;51.448;4.742;2022-09-09T15:59:25;2.58;;;0.82;;
54881;SDS011;40775;51.448;4.742;2022-09-09T16:01:54;1.30;;;0.50;;
54881;SDS011;40775;51.448;4.742;2022-09-09T16:04:22;2.20;;;0.80;;
54881;SDS011;40775;51.448;4.742;2022-09-09T16:06:54;2.80;;;0.75;;
54881;SDS011;40775;51.448;4.742;2022-09-09T16:09:27;0.82;;;0.50;;
54881;SDS011;40775;51.448;4.742;2022-09-09T16:11:56;1.48;;;0.60;;
54881;SDS011;40775;51.448;4.742;2022-09-09T16:14:25;3.83;;;0.80;;
54881;SDS011;40775;51.448;4.742;2022-09-09T16:16:53;1.27;;;0.52;;
54881;SDS011;40775;51.448;4.742;2022-09-09T16:19:20;2.80;;;0.52;;
54881;SDS011;40775;51.448;4.742;2022-09-09T16:21:48;1.07;;;0.50;;
54881;SDS011;40775;51.448;4.742;2022-09-09T16:24:17;1.10;;;0.40;;
54881;SDS011;40775;51.448;4.742;2022-09-09T16:26:47;1.77;;;0.60;;
54881;SDS011;40775;51.448;4.742;2022-09-09T16:29:21;1.40;;;0.50;;
54881;SDS011;40775;51.448;4.742;2022-09-09T16:31:49;1.95;;;0.65;;
54881;SDS011;40775;51.448;4.742;2022-09-09T16:34:17;2.35;;;0.75;;
54881;SDS011;40775;51.448;4.742;2022-09-09T16:36:45;1.20;;;0.50;;
54881;SDS011;40775;51.448;4.742;2022-09-09T16:39:16;1.60;;;0.60;;
54881;SDS011;40775;51.448;4.742;2022-09-09T16:41:47;2.13;;;0.70;;
54881;SDS011;40775;51.448;4.742;2022-09-09T16:44:15;2.40;;;0.60;;
54881;SDS011;40775;51.448;4.742;2022-09-09T16:46:45;1.75;;;0.45;;
54881;SDS011;40775;51.448;4.742;2022-09-09T16:49:15;3.03;;;0.80;;
54881;SDS011;40775;51.448;4.742;2022-09-09T16:54:13;3.10;;;1.00;;
54881;SDS011;40775;51.448;4.742;2022-09-09T16:56:43;3.50;;;1.10;;
54881;SDS011;40775;51.448;4.742;2022-09-09T16:59:16;8.45;;;1.58;;
54881;SDS011;40775;51.448;4.742;2022-09-09T17:01:46;7.97;;;1.95;;
54881;SDS011;40775;51.448;4.742;2022-09-09T17:04:17;5.00;;;1.50;;
54881;SDS011;40775;51.448;4.742;2022-09-09T17:06:50;5.97;;;1.80;;
54881;SDS011;40775;51.448;4.742;2022-09-09T17:09:20;6.68;;;2.00;;
54881;SDS011;40775;51.448;4.742;2022-09-09T17:11:49;6.55;;;1.60;;
54881;SDS011;40775;51.448;4.742;2022-09-09T17:14:18;11.07;;;1.88;;
54881;SDS011;40775;51.448;4.742;2022-09-09T17:16:47;12.80;;;2.25;;
54881;SDS011;40775;51.448;4.742;2022-09-09T17:19:15;8.05;;;1.80;;
54881;SDS011;40775;51.448;4.742;2022-09-09T17:21:42;5.88;;;1.48;;
54881;SDS011;40775;51.448;4.742;2022-09-09T17:24:29;8.68;;;1.98;;
54881;SDS011;40775;51.448;4.742;2022-09-09T17:26:56;7.10;;;1.93;;
54881;SDS011;40775;51.448;4.742;2022-09-09T17:29:24;6.03;;;1.45;;
54881;SDS011;40775;51.448;4.742;2022-09-09T17:31:52;6.30;;;1.80;;
54881;SDS011;40775;51.448;4.742;2022-09-09T17:34:19;5.82;;;1.38;;
54881;SDS011;40775;51.448;4.742;2022-09-09T17:36:47;5.07;;;1.60;;
54881;SDS011;40775;51.448;4.742;2022-09-09T17:39:14;6.57;;;1.27;;
54881;SDS011;40775;51.448;4.742;2022-09-09T17:41:41;4.70;;;1.60;;
54881;SDS011;40775;51.448;4.742;2022-09-09T17:44:08;4.43;;;1.13;;